sensor_id;sensor_type;location;lat;lon;timestamp;temperature;humidity
40434;DHT22;26146;51.114;5.654;2022-12-24T00:02:28;11.60;99.90
40434;DHT22;26146;51.114;5.654;2022-12-24T00:06:29;11.60;99.90
40434;DHT22;26146;51.114;5.654;2022-12-24T00:10:30;11.80;99.90
40434;DHT22;26146;51.114;5.654;2022-12-24T00:14:31;11.70;99.90
40434;DHT22;26146;51.114;5.654;2022-12-24T00:18:32;11.80;99.90
40434;DHT22;26146;51.114;5.654;2022-12-24T00:22:33;11.80;99.90
40434;DHT22;26146;51.114;5.654;2022-12-24T00:26:34;11.60;99.90
40434;DHT22;26146;51.114;5.654;2022-12-24T00:30:39;11.50;99.90
40434;DHT22;26146;51.114;5.654;2022-12-24T00:34:40;11.40;99.90
40434;DHT22;26146;51.114;5.654;2022-12-24T00:38:41;11.40;99.90
40434;DHT22;26146;51.114;5.654;2022-12-24T00:42:43;11.40;99.90
40434;DHT22;26146;51.114;5.654;2022-12-24T00:46:44;11.40;99.90
40434;DHT22;26146;51.114;5.654;2022-12-24T00:50:45;11.40;99.90
40434;DHT22;26146;51.114;5.654;2022-12-24T00:54:48;11.30;99.90
40434;DHT22;26146;51.114;5.654;2022-12-24T00:58:50;11.40;99.90
40434;DHT22;26146;51.114;5.654;2022-12-24T01:02:51;11.40;99.90
40434;DHT22;26146;51.114;5.654;2022-12-24T01:06:54;11.40;99.90
40434;DHT22;26146;51.114;5.654;2022-12-24T01:10:56;11.40;99.90
40434;DHT22;26146;51.114;5.654;2022-12-24T01:14:59;11.30;99.90
40434;DHT22;26146;51.114;5.654;2022-12-24T01:19:00;11.30;99.90
40434;DHT22;26146;51.114;5.654;2022-12-24T01:23:01;11.50;99.90
40434;DHT22;26146;51.114;5.654;2022-12-24T01:27:02;11.40;99.90
40434;DHT22;26146;51.114;5.654;2022-12-24T01:31:11;11.30;99.90
40434;DHT22;26146;51.114;5.654;2022-12-24T01:35:15;11.40;99.90
40434;DHT22;26146;51.114;5.654;2022-12-24T01:39:17;11.30;99.90
40434;DHT22;26146;51.114;5.654;2022-12-24T01:43:20;11.20;99.90
40434;DHT22;26146;51.114;5.654;2022-12-24T01:47:26;11.20;99.90
40434;DHT22;26146;51.114;5.654;2022-12-24T01:51:33;11.20;99.90
40434;DHT22;26146;51.114;5.654;2022-12-24T01:55:35;11.10;99.90
40434;DHT22;26146;51.114;5.654;2022-12-24T01:59:37;11.30;99.90
40434;DHT22;26146;51.114;5.654;2022-12-24T02:03:39;11.40;99.90
40434;DHT22;26146;51.114;5.654;2022-12-24T02:07:41;11.50;99.90
40434;DHT22;26146;51.114;5.654;2022-12-24T02:11:43;11.60;99.90
40434;DHT22;26146;51.114;5.654;2022-12-24T02:15:56;11.70;99.90
40434;DHT22;26146;51.114;5.654;2022-12-24T02:36:57;11.80;99.90
40434;DHT22;26146;51.114;5.654;2022-12-24T02:41:10;11.90;99.90
40434;DHT22;26146;51.114;5.654;2022-12-24T02:45:22;11.70;99.90
40434;DHT22;26146;51.114;5.654;2022-12-24T02:49:25;11.60;99.90
40434;DHT22;26146;51.114;5.654;2022-12-24T02:53:29;11.60;99.90
40434;DHT22;26146;51.114;5.654;2022-12-24T03:05:48;11.50;99.90
40434;DHT22;26146;51.114;5.654;2022-12-24T03:14:00;11.50;99.90
40434;DHT22;26146;51.114;5.654;2022-12-24T03:18:04;11.50;99.90
40434;DHT22;26146;51.114;5.654;2022-12-24T03:22:09;11.60;99.90
40434;DHT22;26146;51.114;5.654;2022-12-24T03:26:13;11.80;99.90
40434;DHT22;26146;51.114;5.654;2022-12-24T03:30:15;11.50;99.90
40434;DHT22;26146;51.114;5.654;2022-12-24T03:34:18;11.60;99.90
40434;DHT22;26146;51.114;5.654;2022-12-24T03:38:19;11.50;99.90
40434;DHT22;26146;51.114;5.654;2022-12-24T03:42:20;11.50;99.90
40434;DHT22;26146;51.114;5.654;2022-12-24T03:46:21;11.40;99.90
40434;DHT22;26146;51.114;5.654;2022-12-24T03:50:22;11.40;99.90
40434;DHT22;26146;51.114;5.654;2022-12-24T03:54:26;11.40;99.90
40434;DHT22;26146;51.114;5.654;2022-12-24T03:58:27;11.40;99.90
40434;DHT22;26146;51.114;5.654;2022-12-24T04:02:28;11.40;99.90
40434;DHT22;26146;51.114;5.654;2022-12-24T04:06:29;11.40;99.90
40434;DHT22;26146;51.114;5.654;2022-12-24T04:10:30;11.50;99.90
40434;DHT22;26146;51.114;5.654;2022-12-24T04:14:31;11.40;99.90
40434;DHT22;26146;51.114;5.654;2022-12-24T04:18:32;11.50;99.90
40434;DHT22;26146;51.114;5.654;2022-12-24T04:22:33;11.50;99.90
40434;DHT22;26146;51.114;5.654;2022-12-24T04:26:34;11.70;99.90
40434;DHT22;26146;51.114;5.654;2022-12-24T04:30:37;11.70;99.90
40434;DHT22;26146;51.114;5.654;2022-12-24T04:34:38;11.70;99.90
40434;DHT22;26146;51.114;5.654;2022-12-24T04:38:39;11.70;99.90
40434;DHT22;26146;51.114;5.654;2022-12-24T04:42:40;11.50;99.90
40434;DHT22;26146;51.114;5.654;2022-12-24T04:46:41;11.40;99.90
40434;DHT22;26146;51.114;5.654;2022-12-24T04:50:44;11.60;99.90
40434;DHT22;26146;51.114;5.654;2022-12-24T04:54:45;11.60;99.90
40434;DHT22;26146;51.114;5.654;2022-12-24T04:58:47;11.50;99.90
40434;DHT22;26146;51.114;5.654;2022-12-24T05:02:48;11.50;99.90
40434;DHT22;26146;51.114;5.654;2022-12-24T05:06:49;11.60;99.90
40434;DHT22;26146;51.114;5.654;2022-12-24T05:10:57;11.70;99.90
40434;DHT22;26146;51.114;5.654;2022-12-24T05:14:58;11.70;99.90
40434;DHT22;26146;51.114;5.654;2022-12-24T05:18:59;11.50;99.90
40434;DHT22;26146;51.114;5.654;2022-12-24T05:23:00;11.50;99.90
40434;DHT22;26146;51.114;5.654;2022-12-24T05:27:20;11.50;99.90
40434;DHT22;26146;51.114;5.654;2022-12-24T05:31:23;11.50;99.90
40434;DHT22;26146;51.114;5.654;2022-12-24T05:35:24;11.50;99.90
40434;DHT22;26146;51.114;5.654;2022-12-24T05:39:25;11.50;99.90
40434;DHT22;26146;51.114;5.654;2022-12-24T05:43:26;11.50;99.90
40434;DHT22;26146;51.114;5.654;2022-12-24T05:47:27;11.70;99.90
40434;DHT22;26146;51.114;5.654;2022-12-24T05:51:28;11.60;99.90
40434;DHT22;26146;51.114;5.654;2022-12-24T05:55:29;11.60;99.90
40434;DHT22;26146;51.114;5.654;2022-12-24T05:59:30;11.60;99.90
40434;DHT22;26146;51.114;5.654;2022-12-24T06:03:31;11.70;99.90
40434;DHT22;26146;51.114;5.654;2022-12-24T06:07:33;11.80;99.90
40434;DHT22;26146;51.114;5.654;2022-12-24T06:11:34;11.80;99.90
40434;DHT22;26146;51.114;5.654;2022-12-24T06:15:46;11.80;99.90
40434;DHT22;26146;51.114;5.654;2022-12-24T06:19:47;11.60;99.90
40434;DHT22;26146;51.114;5.654;2022-12-24T06:23:48;11.80;99.90
40434;DHT22;26146;51.114;5.654;2022-12-24T06:27:49;11.60;99.90
40434;DHT22;26146;51.114;5.654;2022-12-24T06:31:52;11.60;99.90
40434;DHT22;26146;51.114;5.654;2022-12-24T06:35:53;11.70;99.90
40434;DHT22;26146;51.114;5.654;2022-12-24T06:39:54;11.40;99.90
40434;DHT22;26146;51.114;5.654;2022-12-24T06:43:55;11.40;99.90
40434;DHT22;26146;51.114;5.654;2022-12-24T06:47:57;11.30;99.90
40434;DHT22;26146;51.114;5.654;2022-12-24T06:51:58;11.30;99.90
40434;DHT22;26146;51.114;5.654;2022-12-24T06:56:07;11.30;99.90
40434;DHT22;26146;51.114;5.654;2022-12-24T07:00:09;11.40;99.90
40434;DHT22;26146;51.114;5.654;2022-12-24T07:04:11;11.30;99.90
40434;DHT22;26146;51.114;5.654;2022-12-24T07:08:12;11.30;99.90
40434;DHT22;26146;51.114;5.654;2022-12-24T07:12:13;11.40;99.90
40434;DHT22;26146;51.114;5.654;2022-12-24T07:16:14;11.40;99.90
40434;DHT22;26146;51.114;5.654;2022-12-24T07:20:17;11.40;99.90
40434;DHT22;26146;51.114;5.654;2022-12-24T07:24:18;11.50;99.90
40434;DHT22;26146;51.114;5.654;2022-12-24T07:28:22;11.60;99.90
40434;DHT22;26146;51.114;5.654;2022-12-24T07:32:28;11.60;99.90
40434;DHT22;26146;51.114;5.654;2022-12-24T07:36:29;11.50;99.90
40434;DHT22;26146;51.114;5.654;2022-12-24T07:40:33;11.60;99.90
40434;DHT22;26146;51.114;5.654;2022-12-24T07:44:34;11.70;99.90
40434;DHT22;26146;51.114;5.654;2022-12-24T07:48:37;11.80;99.90
40434;DHT22;26146;51.114;5.654;2022-12-24T07:52:38;11.70;99.90
40434;DHT22;26146;51.114;5.654;2022-12-24T07:56:42;11.60;99.90
40434;DHT22;26146;51.114;5.654;2022-12-24T08:00:43;11.60;99.90
40434;DHT22;26146;51.114;5.654;2022-12-24T08:04:44;11.60;99.90
40434;DHT22;26146;51.114;5.654;2022-12-24T08:08:47;11.60;99.90
40434;DHT22;26146;51.114;5.654;2022-12-24T08:12:48;11.70;99.90
40434;DHT22;26146;51.114;5.654;2022-12-24T08:16:49;11.50;99.90
40434;DHT22;26146;51.114;5.654;2022-12-24T08:20:50;11.80;99.90
40434;DHT22;26146;51.114;5.654;2022-12-24T08:24:52;11.80;99.90
40434;DHT22;26146;51.114;5.654;2022-12-24T08:28:53;11.80;99.90
40434;DHT22;26146;51.114;5.654;2022-12-24T08:32:54;11.80;99.90
40434;DHT22;26146;51.114;5.654;2022-12-24T08:36:55;11.70;99.90
40434;DHT22;26146;51.114;5.654;2022-12-24T08:40:56;11.80;99.90
40434;DHT22;26146;51.114;5.654;2022-12-24T08:44:57;11.70;99.90
40434;DHT22;26146;51.114;5.654;2022-12-24T08:49:00;11.50;99.90
40434;DHT22;26146;51.114;5.654;2022-12-24T08:53:01;11.60;99.90
40434;DHT22;26146;51.114;5.654;2022-12-24T08:57:02;11.50;99.90
40434;DHT22;26146;51.114;5.654;2022-12-24T09:01:28;11.60;99.90
40434;DHT22;26146;51.114;5.654;2022-12-24T09:05:29;11.40;99.90
40434;DHT22;26146;51.114;5.654;2022-12-24T09:09:30;11.40;99.90
40434;DHT22;26146;51.114;5.654;2022-12-24T09:13:32;11.60;99.90
40434;DHT22;26146;51.114;5.654;2022-12-24T09:17:34;11.60;99.90
40434;DHT22;26146;51.114;5.654;2022-12-24T09:21:35;11.70;99.90
40434;DHT22;26146;51.114;5.654;2022-12-24T09:25:40;11.60;99.90
40434;DHT22;26146;51.114;5.654;2022-12-24T09:29:41;11.60;99.90
40434;DHT22;26146;51.114;5.654;2022-12-24T09:33:43;11.60;99.90
40434;DHT22;26146;51.114;5.654;2022-12-24T09:37:44;11.60;99.90
40434;DHT22;26146;51.114;5.654;2022-12-24T09:46:33;11.70;99.90
40434;DHT22;26146;51.114;5.654;2022-12-24T09:50:39;11.70;99.90
40434;DHT22;26146;51.114;5.654;2022-12-24T09:54:44;11.80;99.90
40434;DHT22;26146;51.114;5.654;2022-12-24T09:58:55;11.80;99.90
40434;DHT22;26146;51.114;5.654;2022-12-24T10:02:57;11.80;99.90
40434;DHT22;26146;51.114;5.654;2022-12-24T10:11:07;12.10;99.90
40434;DHT22;26146;51.114;5.654;2022-12-24T10:23:58;12.30;99.90
40434;DHT22;26146;51.114;5.654;2022-12-24T10:28:01;12.40;99.90
40434;DHT22;26146;51.114;5.654;2022-12-24T10:36:15;12.60;99.90
40434;DHT22;26146;51.114;5.654;2022-12-24T10:40:42;12.60;99.90
40434;DHT22;26146;51.114;5.654;2022-12-24T10:44:44;12.70;99.90
40434;DHT22;26146;51.114;5.654;2022-12-24T10:48:54;12.70;99.90
40434;DHT22;26146;51.114;5.654;2022-12-24T10:53:04;12.70;99.90
40434;DHT22;26146;51.114;5.654;2022-12-24T10:57:22;12.70;99.90
40434;DHT22;26146;51.114;5.654;2022-12-24T11:01:46;12.90;99.90
40434;DHT22;26146;51.114;5.654;2022-12-24T11:10:22;12.90;99.90
40434;DHT22;26146;51.114;5.654;2022-12-24T11:14:24;13.00;99.90
40434;DHT22;26146;51.114;5.654;2022-12-24T11:18:29;13.10;99.90
40434;DHT22;26146;51.114;5.654;2022-12-24T11:22:31;13.20;99.90
40434;DHT22;26146;51.114;5.654;2022-12-24T11:26:33;13.00;99.90
40434;DHT22;26146;51.114;5.654;2022-12-24T11:30:34;13.20;99.90
40434;DHT22;26146;51.114;5.654;2022-12-24T11:34:36;13.30;99.90
40434;DHT22;26146;51.114;5.654;2022-12-24T11:38:54;13.40;99.90
40434;DHT22;26146;51.114;5.654;2022-12-24T11:42:59;13.50;99.90
40434;DHT22;26146;51.114;5.654;2022-12-24T11:47:01;13.40;99.90
40434;DHT22;26146;51.114;5.654;2022-12-24T11:51:06;13.50;99.90
40434;DHT22;26146;51.114;5.654;2022-12-24T11:55:17;13.20;99.90
40434;DHT22;26146;51.114;5.654;2022-12-24T11:59:31;13.10;99.90
40434;DHT22;26146;51.114;5.654;2022-12-24T12:03:40;13.20;99.90
40434;DHT22;26146;51.114;5.654;2022-12-24T12:07:45;13.40;99.90
40434;DHT22;26146;51.114;5.654;2022-12-24T12:11:51;13.40;99.90
40434;DHT22;26146;51.114;5.654;2022-12-24T12:16:42;13.50;99.90
40434;DHT22;26146;51.114;5.654;2022-12-24T12:21:19;13.60;99.90
40434;DHT22;26146;51.114;5.654;2022-12-24T12:25:27;13.80;99.90
40434;DHT22;26146;51.114;5.654;2022-12-24T12:29:35;13.80;99.90
40434;DHT22;26146;51.114;5.654;2022-12-24T12:33:52;13.90;99.90
40434;DHT22;26146;51.114;5.654;2022-12-24T12:38:04;13.80;99.90
40434;DHT22;26146;51.114;5.654;2022-12-24T12:46:47;14.10;99.90
40434;DHT22;26146;51.114;5.654;2022-12-24T12:50:56;13.90;99.90
40434;DHT22;26146;51.114;5.654;2022-12-24T12:59:09;13.90;99.90
40434;DHT22;26146;51.114;5.654;2022-12-24T13:20:53;13.90;99.90
40434;DHT22;26146;51.114;5.654;2022-12-24T13:24:55;13.90;99.90
40434;DHT22;26146;51.114;5.654;2022-12-24T13:33:52;13.90;99.90
40434;DHT22;26146;51.114;5.654;2022-12-24T13:37:55;14.10;99.90
40434;DHT22;26146;51.114;5.654;2022-12-24T13:51:24;13.90;99.90
40434;DHT22;26146;51.114;5.654;2022-12-24T13:55:25;13.90;99.90
40434;DHT22;26146;51.114;5.654;2022-12-24T13:59:38;14.00;99.90
40434;DHT22;26146;51.114;5.654;2022-12-24T14:03:56;14.20;99.90
40434;DHT22;26146;51.114;5.654;2022-12-24T14:07:59;14.30;99.90
40434;DHT22;26146;51.114;5.654;2022-12-24T14:16:03;13.90;99.90
40434;DHT22;26146;51.114;5.654;2022-12-24T14:20:08;13.80;99.90
40434;DHT22;26146;51.114;5.654;2022-12-24T14:24:21;13.70;99.90
40434;DHT22;26146;51.114;5.654;2022-12-24T14:28:29;13.40;99.90
40434;DHT22;26146;51.114;5.654;2022-12-24T14:32:36;13.40;99.90
40434;DHT22;26146;51.114;5.654;2022-12-24T14:36:38;13.20;99.90
40434;DHT22;26146;51.114;5.654;2022-12-24T14:49:51;12.70;99.90
40434;DHT22;26146;51.114;5.654;2022-12-24T15:02:42;12.50;99.90
40434;DHT22;26146;51.114;5.654;2022-12-24T15:06:53;12.40;99.90
40434;DHT22;26146;51.114;5.654;2022-12-24T15:10:59;12.30;99.90
40434;DHT22;26146;51.114;5.654;2022-12-24T15:15:02;12.10;99.90
40434;DHT22;26146;51.114;5.654;2022-12-24T15:19:06;12.10;99.90
40434;DHT22;26146;51.114;5.654;2022-12-24T15:23:17;12.00;99.90
40434;DHT22;26146;51.114;5.654;2022-12-24T15:27:22;12.00;99.90
40434;DHT22;26146;51.114;5.654;2022-12-24T15:31:27;12.00;99.90
40434;DHT22;26146;51.114;5.654;2022-12-24T15:35:52;11.90;99.90
40434;DHT22;26146;51.114;5.654;2022-12-24T15:40:16;11.90;99.90
40434;DHT22;26146;51.114;5.654;2022-12-24T15:44:19;11.80;99.90
40434;DHT22;26146;51.114;5.654;2022-12-24T15:48:25;11.70;99.90
40434;DHT22;26146;51.114;5.654;2022-12-24T15:52:27;11.70;99.90
40434;DHT22;26146;51.114;5.654;2022-12-24T15:56:30;11.50;99.90
40434;DHT22;26146;51.114;5.654;2022-12-24T16:00:31;11.40;99.90
40434;DHT22;26146;51.114;5.654;2022-12-24T16:04:35;11.30;99.90
40434;DHT22;26146;51.114;5.654;2022-12-24T16:08:40;11.20;99.90
40434;DHT22;26146;51.114;5.654;2022-12-24T16:12:44;11.00;99.90
40434;DHT22;26146;51.114;5.654;2022-12-24T16:16:50;11.00;99.90
40434;DHT22;26146;51.114;5.654;2022-12-24T16:20:55;10.80;99.90
40434;DHT22;26146;51.114;5.654;2022-12-24T16:25:07;10.70;99.90
40434;DHT22;26146;51.114;5.654;2022-12-24T16:29:17;10.70;99.90
40434;DHT22;26146;51.114;5.654;2022-12-24T16:33:22;10.60;99.90
40434;DHT22;26146;51.114;5.654;2022-12-24T16:37:23;10.50;99.90
40434;DHT22;26146;51.114;5.654;2022-12-24T16:41:24;10.40;99.90
40434;DHT22;26146;51.114;5.654;2022-12-24T16:45:27;10.30;99.90
40434;DHT22;26146;51.114;5.654;2022-12-24T16:49:29;10.30;99.90
40434;DHT22;26146;51.114;5.654;2022-12-24T16:53:30;10.20;99.90
40434;DHT22;26146;51.114;5.654;2022-12-24T16:57:32;10.10;99.90
40434;DHT22;26146;51.114;5.654;2022-12-24T17:01:33;10.30;99.90
40434;DHT22;26146;51.114;5.654;2022-12-24T17:05:41;10.30;99.90
40434;DHT22;26146;51.114;5.654;2022-12-24T17:09:43;10.40;99.90
40434;DHT22;26146;51.114;5.654;2022-12-24T17:13:44;10.30;99.90
40434;DHT22;26146;51.114;5.654;2022-12-24T17:17:45;10.40;99.90
40434;DHT22;26146;51.114;5.654;2022-12-24T17:21:47;10.40;99.90
40434;DHT22;26146;51.114;5.654;2022-12-24T17:26:01;10.60;99.90
40434;DHT22;26146;51.114;5.654;2022-12-24T17:30:03;10.80;99.90
40434;DHT22;26146;51.114;5.654;2022-12-24T17:34:04;10.80;99.90
40434;DHT22;26146;51.114;5.654;2022-12-24T17:38:06;10.80;99.90
40434;DHT22;26146;51.114;5.654;2022-12-24T17:42:06;10.70;99.90
40434;DHT22;26146;51.114;5.654;2022-12-24T17:46:18;10.70;99.90
40434;DHT22;26146;51.114;5.654;2022-12-24T17:50:23;10.70;99.90
40434;DHT22;26146;51.114;5.654;2022-12-24T17:54:24;10.80;99.90
40434;DHT22;26146;51.114;5.654;2022-12-24T17:58:25;10.70;99.90
40434;DHT22;26146;51.114;5.654;2022-12-24T18:02:26;10.60;99.90
40434;DHT22;26146;51.114;5.654;2022-12-24T18:06:27;10.50;99.90
40434;DHT22;26146;51.114;5.654;2022-12-24T18:10:29;10.60;99.90
40434;DHT22;26146;51.114;5.654;2022-12-24T18:14:30;10.40;99.90
40434;DHT22;26146;51.114;5.654;2022-12-24T18:18:31;10.50;99.90
40434;DHT22;26146;51.114;5.654;2022-12-24T18:22:32;10.60;99.90
40434;DHT22;26146;51.114;5.654;2022-12-24T18:26:33;10.60;99.90
40434;DHT22;26146;51.114;5.654;2022-12-24T18:30:34;10.70;99.90
40434;DHT22;26146;51.114;5.654;2022-12-24T18:34:35;10.80;99.90
40434;DHT22;26146;51.114;5.654;2022-12-24T18:38:37;10.90;99.90
40434;DHT22;26146;51.114;5.654;2022-12-24T18:42:39;10.80;99.90
40434;DHT22;26146;51.114;5.654;2022-12-24T18:46:41;10.70;99.90
40434;DHT22;26146;51.114;5.654;2022-12-24T18:50:56;10.80;99.90
40434;DHT22;26146;51.114;5.654;2022-12-24T18:54:57;11.00;99.90
40434;DHT22;26146;51.114;5.654;2022-12-24T18:59:01;11.00;99.90
40434;DHT22;26146;51.114;5.654;2022-12-24T19:03:07;10.90;99.90
40434;DHT22;26146;51.114;5.654;2022-12-24T19:07:08;10.90;99.90
40434;DHT22;26146;51.114;5.654;2022-12-24T19:11:12;10.80;99.90
40434;DHT22;26146;51.114;5.654;2022-12-24T19:15:13;10.70;99.90
40434;DHT22;26146;51.114;5.654;2022-12-24T19:19:14;10.60;99.90
40434;DHT22;26146;51.114;5.654;2022-12-24T19:23:16;10.60;99.90
40434;DHT22;26146;51.114;5.654;2022-12-24T19:27:17;10.60;99.90
40434;DHT22;26146;51.114;5.654;2022-12-24T19:31:20;10.50;99.90
40434;DHT22;26146;51.114;5.654;2022-12-24T19:35:33;10.60;99.90
40434;DHT22;26146;51.114;5.654;2022-12-24T19:39:34;10.60;99.90
40434;DHT22;26146;51.114;5.654;2022-12-24T19:43:39;10.60;99.90
40434;DHT22;26146;51.114;5.654;2022-12-24T19:47:41;10.60;99.90
40434;DHT22;26146;51.114;5.654;2022-12-24T19:51:44;10.60;99.90
40434;DHT22;26146;51.114;5.654;2022-12-24T19:55:45;10.60;99.90
40434;DHT22;26146;51.114;5.654;2022-12-24T19:59:46;10.50;99.90
40434;DHT22;26146;51.114;5.654;2022-12-24T20:03:48;10.40;99.90
40434;DHT22;26146;51.114;5.654;2022-12-24T20:07:52;10.50;99.90
40434;DHT22;26146;51.114;5.654;2022-12-24T20:11:53;10.40;99.90
40434;DHT22;26146;51.114;5.654;2022-12-24T20:15:55;10.40;99.90
40434;DHT22;26146;51.114;5.654;2022-12-24T20:19:56;10.40;99.90
40434;DHT22;26146;51.114;5.654;2022-12-24T20:23:59;10.30;99.90
40434;DHT22;26146;51.114;5.654;2022-12-24T20:28:03;10.10;99.90
40434;DHT22;26146;51.114;5.654;2022-12-24T20:32:05;10.10;99.90
40434;DHT22;26146;51.114;5.654;2022-12-24T20:36:06;10.00;99.90
40434;DHT22;26146;51.114;5.654;2022-12-24T20:40:08;10.00;99.90
40434;DHT22;26146;51.114;5.654;2022-12-24T20:44:10;10.10;99.90
40434;DHT22;26146;51.114;5.654;2022-12-24T20:48:13;10.10;99.90
40434;DHT22;26146;51.114;5.654;2022-12-24T20:52:14;10.20;99.90
40434;DHT22;26146;51.114;5.654;2022-12-24T20:56:16;10.20;99.90
40434;DHT22;26146;51.114;5.654;2022-12-24T21:00:18;10.30;99.90
40434;DHT22;26146;51.114;5.654;2022-12-24T21:04:19;10.40;99.90
40434;DHT22;26146;51.114;5.654;2022-12-24T21:08:20;10.40;99.90
40434;DHT22;26146;51.114;5.654;2022-12-24T21:12:21;10.50;99.90
40434;DHT22;26146;51.114;5.654;2022-12-24T21:16:41;10.50;99.90
40434;DHT22;26146;51.114;5.654;2022-12-24T21:20:44;10.60;99.90
40434;DHT22;26146;51.114;5.654;2022-12-24T21:24:48;10.60;99.90
40434;DHT22;26146;51.114;5.654;2022-12-24T21:28:49;10.70;99.90
40434;DHT22;26146;51.114;5.654;2022-12-24T21:32:50;10.70;99.90
40434;DHT22;26146;51.114;5.654;2022-12-24T21:36:51;10.80;99.90
40434;DHT22;26146;51.114;5.654;2022-12-24T21:41:03;10.80;99.90
40434;DHT22;26146;51.114;5.654;2022-12-24T21:45:05;10.80;99.90
40434;DHT22;26146;51.114;5.654;2022-12-24T21:49:09;10.80;99.90
40434;DHT22;26146;51.114;5.654;2022-12-24T21:53:28;10.80;99.90
40434;DHT22;26146;51.114;5.654;2022-12-24T21:57:48;10.70;99.90
40434;DHT22;26146;51.114;5.654;2022-12-24T22:01:52;10.70;99.90
40434;DHT22;26146;51.114;5.654;2022-12-24T22:05:57;10.70;99.90
40434;DHT22;26146;51.114;5.654;2022-12-24T22:09:58;10.60;99.90
40434;DHT22;26146;51.114;5.654;2022-12-24T22:14:18;10.50;99.90
40434;DHT22;26146;51.114;5.654;2022-12-24T22:18:22;10.60;99.90
40434;DHT22;26146;51.114;5.654;2022-12-24T22:22:24;10.60;99.90
40434;DHT22;26146;51.114;5.654;2022-12-24T22:26:25;10.50;99.90
40434;DHT22;26146;51.114;5.654;2022-12-24T22:30:26;10.50;99.90
40434;DHT22;26146;51.114;5.654;2022-12-24T22:34:27;10.40;99.90
40434;DHT22;26146;51.114;5.654;2022-12-24T22:38:28;10.40;99.90
40434;DHT22;26146;51.114;5.654;2022-12-24T22:42:34;10.50;99.90
40434;DHT22;26146;51.114;5.654;2022-12-24T22:46:35;10.40;99.90
40434;DHT22;26146;51.114;5.654;2022-12-24T22:50:39;10.40;99.90
40434;DHT22;26146;51.114;5.654;2022-12-24T22:54:40;10.30;99.90
40434;DHT22;26146;51.114;5.654;2022-12-24T22:58:46;10.30;99.90
40434;DHT22;26146;51.114;5.654;2022-12-24T23:02:48;10.40;99.90
40434;DHT22;26146;51.114;5.654;2022-12-24T23:06:48;10.30;99.90
40434;DHT22;26146;51.114;5.654;2022-12-24T23:10:50;10.30;99.90
40434;DHT22;26146;51.114;5.654;2022-12-24T23:14:51;10.30;99.90
40434;DHT22;26146;51.114;5.654;2022-12-24T23:19:00;10.20;99.90
40434;DHT22;26146;51.114;5.654;2022-12-24T23:23:02;10.30;99.90
40434;DHT22;26146;51.114;5.654;2022-12-24T23:27:04;10.30;99.90
40434;DHT22;26146;51.114;5.654;2022-12-24T23:31:05;10.20;99.90
40434;DHT22;26146;51.114;5.654;2022-12-24T23:35:07;10.20;99.90
40434;DHT22;26146;51.114;5.654;2022-12-24T23:39:10;10.20;99.90
40434;DHT22;26146;51.114;5.654;2022-12-24T23:43:11;10.10;99.90
40434;DHT22;26146;51.114;5.654;2022-12-24T23:47:13;10.20;99.90
40434;DHT22;26146;51.114;5.654;2022-12-24T23:51:17;10.10;99.90
40434;DHT22;26146;51.114;5.654;2022-12-24T23:55:18;10.10;99.90
40434;DHT22;26146;51.114;5.654;2022-12-24T23:59:21;10.30;99.90
